Time;durP1;ratioP1;P1;durP2;ratioP2;P2;SDS_P1;SDS_P2;PMS_P1;PMS_P2;Temp;Humidity;BMP_temperature;BMP_pressure;BME280_temperature;BME280_humidity;BME280_pressure;Samples;Min_cycle;Max_cycle;Signal;HPM_P1;HPM_P2
2024/01/24 00:02:14;;;;;;;7.40;4.10;;;;;;;;;;5054602;28;20037;-76
2024/01/24 00:04:39;;;;;;;7.32;3.80;;;;;;;;;;5056744;28;20020;-78
2024/01/24 00:07:05;;;;;;;4.45;3.22;;;;;;;;;;5053699;28;20040;-74
2024/01/24 00:09:33;;;;;;;7.22;3.53;;;;;;;;;;5054125;28;20024;-74
2024/01/24 00:11:59;;;;;;;6.93;3.65;;;;;;;;;;5055560;28;20025;-74
2024/01/24 00:14:25;;;;;;;6.90;3.55;;;;;;;;;;5058040;28;20036;-74
2024/01/24 00:16:51;;;;;;;6.07;3.60;;;;;;;;;;5062055;28;20036;-74
2024/01/24 00:19:16;;;;;;;14.63;3.80;;;;;;;;;;5073310;28;20032;-74
2024/01/24 00:21:42;;;;;;;10.85;4.00;;;;;;;;;;5073550;28;20029;-74
2024/01/24 00:24:08;;;;;;;11.18;4.13;;;;;;;;;;5072538;28;20025;-74
2024/01/24 00:26:37;;;;;;;4.85;3.72;;;;;;;;;;5072985;28;20388;-74
2024/01/24 00:29:02;;;;;;;8.68;3.83;;;;;;;;;;5062304;28;20108;-75
2024/01/24 00:31:28;;;;;;;7.97;3.80;;;;;;;;;;5055047;28;20468;-74
2024/01/24 00:33:53;;;;;;;7.60;3.75;;;;;;;;;;5059972;28;20041;-76
2024/01/24 00:36:19;;;;;;;7.18;3.85;;;;;;;;;;5055223;28;20021;-73
2024/01/24 00:38:44;;;;;;;7.63;3.72;;;;;;;;;;5053684;28;20032;-73
2024/01/24 00:41:10;;;;;;;7.53;3.65;;;;;;;;;;5052875;28;20082;-74
2024/01/24 00:43:36;;;;;;;5.35;3.60;;;;;;;;;;5053430;28;20025;-75
2024/01/24 00:46:02;;;;;;;6.28;3.65;;;;;;;;;;5055262;28;20028;-76
2024/01/24 00:48:27;;;;;;;5.07;3.60;;;;;;;;;;5066407;28;20075;-73
2024/01/24 00:50:53;;;;;;;5.78;3.38;;;;;;;;;;5073609;28;20033;-74
2024/01/24 00:53:20;;;;;;;7.68;3.50;;;;;;;;;;5072646;28;20500;-74
2024/01/24 00:55:46;;;;;;;5.15;3.40;;;;;;;;;;5072841;28;20051;-73
2024/01/24 00:58:12;;;;;;;6.95;3.28;;;;;;;;;;5072924;28;20526;-74
2024/01/24 01:00:38;;;;;;;10.98;3.92;;;;;;;;;;5071755;28;20123;-74
2024/01/24 01:03:04;;;;;;;5.70;3.40;;;;;;;;;;5051345;28;20029;-73
2024/01/24 01:05:29;;;;;;;5.07;3.67;;;;;;;;;;5052599;28;20370;-75
2024/01/24 01:07:55;;;;;;;12.05;4.00;;;;;;;;;;5052481;28;20055;-74
2024/01/24 01:10:20;;;;;;;7.28;3.28;;;;;;;;;;5052854;28;20112;-74
2024/01/24 01:12:46;;;;;;;10.13;3.92;;;;;;;;;;5052558;28;20036;-74
2024/01/24 01:15:12;;;;;;;4.45;3.53;;;;;;;;;;5053321;28;20021;-74
2024/01/24 01:17:38;;;;;;;4.50;3.40;;;;;;;;;;5052785;28;20068;-74
2024/01/24 01:20:05;;;;;;;3.97;3.35;;;;;;;;;;5069160;28;20622;-74
2024/01/24 01:22:30;;;;;;;6.32;3.28;;;;;;;;;;5053413;28;20053;-74
2024/01/24 01:24:56;;;;;;;5.05;3.53;;;;;;;;;;5052281;28;20095;-74
2024/01/24 01:27:22;;;;;;;3.58;3.20;;;;;;;;;;5056062;28;20507;-73
2024/01/24 01:29:48;;;;;;;5.22;3.47;;;;;;;;;;5075575;28;20032;-78
2024/01/24 01:32:14;;;;;;;8.38;3.60;;;;;;;;;;5077896;28;20029;-74
2024/01/24 01:34:39;;;;;;;5.68;3.60;;;;;;;;;;5077276;28;20032;-77
2024/01/24 01:37:05;;;;;;;4.97;3.50;;;;;;;;;;5076856;28;20028;-73
2024/01/24 01:39:31;;;;;;;6.10;3.30;;;;;;;;;;5076490;28;20028;-73
2024/01/24 01:41:56;;;;;;;5.95;3.60;;;;;;;;;;5076757;28;20465;-73
2024/01/24 01:44:22;;;;;;;6.45;3.35;;;;;;;;;;5076708;28;20047;-74
2024/01/24 01:46:48;;;;;;;6.30;3.70;;;;;;;;;;5071706;28;20028;-74
2024/01/24 01:49:14;;;;;;;4.28;3.38;;;;;;;;;;5070215;28;20453;-75
2024/01/24 01:51:40;;;;;;;3.65;3.15;;;;;;;;;;5075120;28;20056;-74
2024/01/24 01:54:08;;;;;;;6.22;3.78;;;;;;;;;;5076983;28;20055;-74
2024/01/24 01:56:35;;;;;;;4.97;3.75;;;;;;;;;;5076668;28;20465;-74
2024/01/24 01:59:00;;;;;;;4.47;3.40;;;;;;;;;;5076802;28;20028;-75
2024/01/24 02:01:26;;;;;;;4.95;3.55;;;;;;;;;;5090194;28;20063;-74
2024/01/24 02:03:52;;;;;;;6.18;3.75;;;;;;;;;;5063392;28;20154;-69
2024/01/24 02:06:17;;;;;;;14.98;4.30;;;;;;;;;;5058466;28;20078;-70
2024/01/24 02:08:44;;;;;;;7.53;3.40;;;;;;;;;;5077012;28;20413;-70
2024/01/24 07:05:38;;;;;;;3.78;2.67;;;;;;;;;;5278587;23;20050;-71
2024/01/24 07:08:04;;;;;;;4.28;2.90;;;;;;;;;;4971272;28;20122;-74
2024/01/24 07:10:29;;;;;;;3.10;2.72;;;;;;;;;;4971376;28;20019;-74
2024/01/24 07:12:56;;;;;;;3.30;2.60;;;;;;;;;;4969619;28;20029;-70
2024/01/24 07:15:21;;;;;;;3.00;2.50;;;;;;;;;;4970739;28;20030;-70
2024/01/24 07:17:47;;;;;;;3.55;2.70;;;;;;;;;;4969978;28;20019;-71
2024/01/24 07:20:13;;;;;;;3.28;2.50;;;;;;;;;;4971070;28;20022;-74
2024/01/24 07:22:39;;;;;;;3.25;2.78;;;;;;;;;;4970672;28;20097;-70
2024/01/24 07:25:08;;;;;;;2.67;2.35;;;;;;;;;;4972685;28;20030;-69
2024/01/24 07:27:36;;;;;;;2.25;2.05;;;;;;;;;;4971968;28;20121;-69
2024/01/24 07:30:04;;;;;;;2.67;2.45;;;;;;;;;;4974038;28;20058;-70
2024/01/24 07:32:31;;;;;;;2.72;2.40;;;;;;;;;;4971563;28;20383;-73
2024/01/24 07:34:58;;;;;;;2.80;2.47;;;;;;;;;;4970744;28;20041;-73
2024/01/24 07:37:23;;;;;;;3.55;2.50;;;;;;;;;;4972114;28;20030;-74
2024/01/24 07:39:49;;;;;;;4.03;2.42;;;;;;;;;;4969736;28;20391;-73
2024/01/24 07:42:14;;;;;;;3.17;2.47;;;;;;;;;;4972197;28;20610;-73
2024/01/24 07:44:40;;;;;;;3.28;2.45;;;;;;;;;;4970167;28;20077;-74
2024/01/24 07:47:06;;;;;;;8.88;2.30;;;;;;;;;;4969231;28;20026;-74
2024/01/24 07:49:33;;;;;;;3.50;2.40;;;;;;;;;;4970550;28;20461;-72
2024/01/24 07:51:59;;;;;;;2.65;2.45;;;;;;;;;;4968666;28;20089;-74
2024/01/24 07:54:25;;;;;;;3.05;2.40;;;;;;;;;;4970182;28;20027;-70
2024/01/24 07:56:50;;;;;;;2.38;2.13;;;;;;;;;;4970083;28;20118;-70
2024/01/24 07:59:16;;;;;;;3.42;2.53;;;;;;;;;;4968520;28;20038;-73
2024/01/24 08:01:48;;;;;;;3.55;2.42;;;;;;;;;;4968925;28;20538;-71
2024/01/24 08:04:14;;;;;;;3.22;2.33;;;;;;;;;;4969740;28;20089;-71
2024/01/24 08:06:41;;;;;;;3.88;2.60;;;;;;;;;;4969595;28;20035;-71
2024/01/24 08:09:07;;;;;;;3.05;2.42;;;;;;;;;;4968791;28;20026;-71
2024/01/24 08:11:32;;;;;;;2.83;2.38;;;;;;;;;;4970170;28;20038;-69
2024/01/24 08:13:58;;;;;;;3.00;2.25;;;;;;;;;;4954811;28;20061;-70
2024/01/24 08:16:23;;;;;;;2.58;2.38;;;;;;;;;;4955509;28;20039;-71
2024/01/24 08:18:49;;;;;;;3.45;2.60;;;;;;;;;;4937855;29;20369;-70
2024/01/24 08:21:15;;;;;;;5.75;2.53;;;;;;;;;;4955125;28;20023;-70
2024/01/24 08:23:40;;;;;;;2.53;2.30;;;;;;;;;;4953733;29;20039;-72
2024/01/24 08:26:09;;;;;;;3.08;2.55;;;;;;;;;;4954932;28;20031;-71
2024/01/24 08:28:35;;;;;;;2.65;2.35;;;;;;;;;;4953642;29;20031;-71
2024/01/24 08:31:00;;;;;;;3.45;2.60;;;;;;;;;;4954894;28;20027;-70
2024/01/24 08:33:26;;;;;;;3.72;2.40;;;;;;;;;;4954788;28;20034;-70
2024/01/24 08:35:51;;;;;;;3.00;2.22;;;;;;;;;;4959494;28;20080;-72
2024/01/24 08:38:17;;;;;;;3.45;2.53;;;;;;;;;;4971176;28;20031;-72
2024/01/24 08:40:43;;;;;;;2.80;2.38;;;;;;;;;;4972947;28;20031;-73
2024/01/24 08:43:08;;;;;;;2.55;2.20;;;;;;;;;;4972977;28;20411;-73
2024/01/24 08:45:34;;;;;;;3.13;2.53;;;;;;;;;;4972252;28;20054;-73
2024/01/24 08:48:00;;;;;;;2.70;2.50;;;;;;;;;;4972181;28;20062;-73
2024/01/24 08:50:25;;;;;;;3.00;2.60;;;;;;;;;;4972714;28;20074;-73
2024/01/24 08:52:52;;;;;;;3.75;2.28;;;;;;;;;;4972702;28;20027;-73
2024/01/24 08:55:18;;;;;;;2.60;2.40;;;;;;;;;;4972643;28;20026;-73
2024/01/24 08:57:43;;;;;;;3.83;2.58;;;;;;;;;;4971483;28;20050;-73
2024/01/24 09:00:13;;;;;;;2.90;2.47;;;;;;;;;;4972643;28;20031;-75
2024/01/24 09:02:39;;;;;;;3.42;2.25;;;;;;;;;;4974269;28;20026;-75
2024/01/24 09:05:05;;;;;;;2.58;2.10;;;;;;;;;;4974290;28;20106;-75
2024/01/24 09:07:31;;;;;;;2.80;2.28;;;;;;;;;;4973725;28;20556;-76
2024/01/24 09:09:56;;;;;;;2.60;2.25;;;;;;;;;;4974017;28;20018;-76
2024/01/24 09:12:22;;;;;;;2.65;1.95;;;;;;;;;;4973690;28;20411;-75
2024/01/24 09:14:47;;;;;;;3.08;2.33;;;;;;;;;;4972723;28;20034;-73
2024/01/24 09:17:13;;;;;;;2.67;2.17;;;;;;;;;;4973707;28;20023;-75
2024/01/24 09:19:43;;;;;;;2.85;2.20;;;;;;;;;;4974028;28;20456;-74
2024/01/24 09:22:09;;;;;;;2.90;2.42;;;;;;;;;;4973790;28;20031;-74
2024/01/24 09:24:35;;;;;;;3.10;2.38;;;;;;;;;;4973820;28;20034;-75
2024/01/24 09:27:02;;;;;;;2.97;2.10;;;;;;;;;;4973793;28;20134;-75
2024/01/24 09:29:28;;;;;;;3.22;2.10;;;;;;;;;;4974048;28;20423;-73
2024/01/24 09:31:53;;;;;;;2.45;2.20;;;;;;;;;;4974053;28;20055;-74
2024/01/24 09:34:19;;;;;;;7.28;2.72;;;;;;;;;;4973637;28;20475;-74
2024/01/24 09:36:45;;;;;;;2.55;2.25;;;;;;;;;;4973500;28;20106;-70
2024/01/24 09:39:11;;;;;;;3.78;2.50;;;;;;;;;;4973741;28;20101;-74
2024/01/24 09:41:41;;;;;;;3.10;2.17;;;;;;;;;;4972460;28;20026;-73
2024/01/24 09:44:11;;;;;;;2.50;2.30;;;;;;;;;;4973551;28;20033;-75
2024/01/24 09:46:39;;;;;;;2.88;2.50;;;;;;;;;;4972456;28;20029;-74
2024/01/24 09:49:06;;;;;;;2.50;2.20;;;;;;;;;;4973317;28;20026;-74
2024/01/24 09:51:36;;;;;;;2.95;2.30;;;;;;;;;;4976960;28;20189;-74
2024/01/24 09:54:02;;;;;;;;;;;;;;;;;;4977566;28;20035;-74
2024/01/24 09:56:29;;;;;;;3.03;2.20;;;;;;;;;;4977190;28;19914;-74
2024/01/24 09:58:54;;;;;;;2.70;2.20;;;;;;;;;;4977397;28;20034;-74
2024/01/24 10:01:21;;;;;;;2.33;2.13;;;;;;;;;;4977057;28;20440;-74
2024/01/24 10:03:47;;;;;;;2.83;2.20;;;;;;;;;;4976893;28;20027;-74
2024/01/24 10:06:14;;;;;;;3.20;2.40;;;;;;;;;;4976847;28;20047;-73
2024/01/24 10:08:40;;;;;;;2.78;2.13;;;;;;;;;;4976747;28;20165;-73
2024/01/24 10:11:07;;;;;;;2.65;2.10;;;;;;;;;;4976992;28;20054;-72
2024/01/24 10:13:32;;;;;;;2.85;2.40;;;;;;;;;;4976947;28;20426;-69
2024/01/24 10:15:59;;;;;;;3.67;2.42;;;;;;;;;;4976896;28;20113;-68
2024/01/24 10:18:25;;;;;;;2.58;2.15;;;;;;;;;;4976600;28;20110;-71
2024/01/24 10:20:50;;;;;;;2.58;2.20;;;;;;;;;;4976623;28;20151;-72
2024/01/24 10:23:16;;;;;;;2.38;2.08;;;;;;;;;;4976480;28;20030;-68
2024/01/24 10:25:41;;;;;;;2.75;2.20;;;;;;;;;;4976726;28;20162;-72
2024/01/24 10:28:14;;;;;;;2.88;2.38;;;;;;;;;;4976631;28;20049;-73
2024/01/24 10:30:43;;;;;;;3.00;2.22;;;;;;;;;;4976395;28;20026;-74
2024/01/24 10:33:12;;;;;;;2.40;2.20;;;;;;;;;;4976376;28;20027;-68
2024/01/24 10:35:38;;;;;;;2.95;2.03;;;;;;;;;;4976257;28;20026;-70
2024/01/24 10:38:05;;;;;;;2.33;2.13;;;;;;;;;;4976322;28;20023;-69
2024/01/24 10:40:31;;;;;;;2.25;2.05;;;;;;;;;;4976288;28;20468;-69
2024/01/24 10:43:05;;;;;;;2.65;2.25;;;;;;;;;;4976393;28;20034;-69
2024/01/24 10:45:31;;;;;;;2.25;2.00;;;;;;;;;;4976428;28;20023;-72
2024/01/24 10:47:58;;;;;;;2.70;1.92;;;;;;;;;;4976240;28;20050;-74
2024/01/24 10:50:25;;;;;;;2.80;2.25;;;;;;;;;;4976097;28;20023;-72
2024/01/24 10:52:54;;;;;;;2.67;2.10;;;;;;;;;;4976008;28;20428;-71
2024/01/24 10:55:21;;;;;;;2.72;2.30;;;;;;;;;;4976040;28;20027;-71
2024/01/24 10:57:47;;;;;;;2.20;1.98;;;;;;;;;;4975923;28;20030;-73
2024/01/24 11:00:15;;;;;;;2.35;2.10;;;;;;;;;;4975923;28;20034;-73
2024/01/24 11:02:42;;;;;;;2.70;2.10;;;;;;;;;;4975827;28;20054;-70
2024/01/24 11:05:15;;;;;;;2.97;2.28;;;;;;;;;;4975633;28;20047;-70
2024/01/24 11:07:49;;;;;;;2.72;2.00;;;;;;;;;;4975688;28;20042;-69
2024/01/24 11:10:30;;;;;;;2.38;2.17;;;;;;;;;;4975711;28;20522;-73
2024/01/24 11:12:56;;;;;;;2.35;2.15;;;;;;;;;;4975653;28;20394;-73
2024/01/24 11:15:22;;;;;;;2.45;2.03;;;;;;;;;;4975615;28;20031;-72
2024/01/24 11:18:23;;;;;;;2.47;2.25;;;;;;;;;;4975527;28;20468;-71
2024/01/24 11:20:59;;;;;;;2.97;2.10;;;;;;;;;;4975481;28;20419;-73
2024/01/24 11:23:40;;;;;;;2.10;1.90;;;;;;;;;;4975462;28;20031;-70
2024/01/24 11:26:26;;;;;;;2.30;2.08;;;;;;;;;;4975464;28;20027;-72
2024/01/24 11:29:11;;;;;;;2.55;2.20;;;;;;;;;;4967940;28;20047;-71
2024/01/24 11:31:40;;;;;;;2.53;2.20;;;;;;;;;;4975312;28;20033;-72
2024/01/24 11:34:11;;;;;;;2.60;2.20;;;;;;;;;;4975299;28;20023;-72
2024/01/24 11:36:47;;;;;;;2.30;2.10;;;;;;;;;;4975164;28;20031;-72
2024/01/24 11:39:37;;;;;;;2.38;2.17;;;;;;;;;;4975095;28;20034;-71
2024/01/24 11:42:24;;;;;;;2.58;2.22;;;;;;;;;;4975129;28;20023;-72
2024/01/24 11:44:52;;;;;;;2.75;2.40;;;;;;;;;;4975045;28;20033;-71
2024/01/24 11:47:18;;;;;;;2.55;1.95;;;;;;;;;;4970349;28;20510;-71
2024/01/24 11:49:49;;;;;;;2.90;2.17;;;;;;;;;;4975030;28;20058;-72
2024/01/24 11:52:21;;;;;;;2.75;2.15;;;;;;;;;;4974895;28;20042;-70
2024/01/24 11:54:51;;;;;;;2.40;2.03;;;;;;;;;;4974844;28;20026;-72
2024/01/24 11:57:17;;;;;;;2.15;1.92;;;;;;;;;;4972149;28;20058;-72
2024/01/24 11:59:42;;;;;;;2.47;1.95;;;;;;;;;;4974700;28;20038;-71
2024/01/24 12:02:08;;;;;;;2.33;2.05;;;;;;;;;;4974625;28;20038;-72
2024/01/24 12:04:33;;;;;;;2.47;2.17;;;;;;;;;;4974491;28;20050;-72
2024/01/24 12:07:00;;;;;;;2.30;2.10;;;;;;;;;;4974647;28;20487;-71
2024/01/24 12:09:26;;;;;;;2.75;2.22;;;;;;;;;;4969586;28;20030;-71
2024/01/24 12:11:52;;;;;;;2.40;2.10;;;;;;;;;;4969904;28;20026;-70
2024/01/24 12:14:19;;;;;;;2.20;2.00;;;;;;;;;;4969345;28;20105;-72
2024/01/24 12:16:46;;;;;;;2.22;2.03;;;;;;;;;;4967691;28;20114;-74
2024/01/24 12:19:14;;;;;;;3.20;2.40;;;;;;;;;;4968980;28;20455;-71
2024/01/24 12:21:40;;;;;;;2.63;2.10;;;;;;;;;;4970807;28;20053;-73
2024/01/24 12:24:07;;;;;;;3.88;2.00;;;;;;;;;;4971077;28;20083;-74
2024/01/24 12:26:32;;;;;;;2.22;2.03;;;;;;;;;;4973345;28;20368;-67
2024/01/24 12:28:59;;;;;;;4.47;2.20;;;;;;;;;;4964880;28;20031;-68
2024/01/24 12:31:28;;;;;;;2.20;2.00;;;;;;;;;;4974100;28;20522;-67
2024/01/24 12:33:55;;;;;;;2.20;2.00;;;;;;;;;;4972677;28;20031;-71
2024/01/24 12:36:22;;;;;;;2.88;1.90;;;;;;;;;;4973570;28;20594;-69
2024/01/24 12:38:50;;;;;;;4.78;2.30;;;;;;;;;;4973306;28;20539;-68
2024/01/24 12:41:17;;;;;;;3.92;2.22;;;;;;;;;;4970245;28;20054;-73
2024/01/24 12:43:42;;;;;;;7.63;2.05;;;;;;;;;;4977211;28;20022;-75
2024/01/24 12:46:10;;;;;;;3.05;2.17;;;;;;;;;;4975613;28;20031;-76
2024/01/24 12:48:36;;;;;;;2.25;1.98;;;;;;;;;;4973231;28;20030;-75
2024/01/24 12:51:02;;;;;;;3.92;2.10;;;;;;;;;;4971554;28;20070;-75
2024/01/24 12:53:28;;;;;;;3.20;1.90;;;;;;;;;;4973655;28;20062;-74
2024/01/24 12:55:53;;;;;;;12.48;2.53;;;;;;;;;;4972570;28;20030;-75
2024/01/24 12:58:19;;;;;;;3.25;2.10;;;;;;;;;;4975682;28;20058;-73
2024/01/24 13:00:44;;;;;;;5.20;2.20;;;;;;;;;;4973849;28;20027;-73
2024/01/24 13:03:10;;;;;;;2.65;2.13;;;;;;;;;;4972170;28;20085;-69
2024/01/24 13:05:35;;;;;;;2.53;2.33;;;;;;;;;;4972300;28;20138;-67
2024/01/24 13:08:01;;;;;;;7.50;2.50;;;;;;;;;;4969993;28;20066;-72
2024/01/24 13:10:27;;;;;;;2.22;2.00;;;;;;;;;;4971361;28;20031;-70
2024/01/24 13:12:53;;;;;;;2.65;2.28;;;;;;;;;;4974050;28;20031;-72
2024/01/24 13:15:18;;;;;;;6.25;2.40;;;;;;;;;;4973744;28;20030;-72
2024/01/24 13:17:44;;;;;;;4.97;2.20;;;;;;;;;;4973035;28;20049;-72
2024/01/24 13:20:10;;;;;;;2.88;2.20;;;;;;;;;;4971571;28;20527;-71
2024/01/24 13:22:35;;;;;;;3.83;2.30;;;;;;;;;;4972915;28;20034;-71
2024/01/24 13:25:01;;;;;;;3.83;2.42;;;;;;;;;;4975858;28;20495;-71
2024/01/24 13:27:28;;;;;;;6.47;2.47;;;;;;;;;;4977253;28;20102;-72
2024/01/24 13:29:53;;;;;;;4.40;2.30;;;;;;;;;;4977267;28;20034;-72
2024/01/24 13:32:19;;;;;;;2.90;2.00;;;;;;;;;;4977498;28;20476;-71
2024/01/24 13:34:45;;;;;;;3.92;2.22;;;;;;;;;;4977633;28;20126;-72
2024/01/24 13:37:11;;;;;;;3.00;2.25;;;;;;;;;;4977546;28;20043;-72
2024/01/24 13:39:37;;;;;;;5.10;2.53;;;;;;;;;;4977631;28;20492;-71
2024/01/24 13:42:03;;;;;;;3.60;2.10;;;;;;;;;;4977365;28;20046;-72
2024/01/24 13:44:30;;;;;;;6.43;2.03;;;;;;;;;;4977502;28;20077;-72
2024/01/24 13:46:56;;;;;;;4.30;2.17;;;;;;;;;;4977345;28;20019;-71
2024/01/24 13:49:22;;;;;;;3.72;2.25;;;;;;;;;;4977313;28;20106;-72
2024/01/24 13:51:48;;;;;;;3.15;2.22;;;;;;;;;;4977432;28;20027;-72
2024/01/24 13:54:14;;;;;;;3.45;2.20;;;;;;;;;;4977394;28;20157;-72
2024/01/24 13:56:39;;;;;;;2.20;2.00;;;;;;;;;;4977305;28;20101;-72
2024/01/24 13:59:05;;;;;;;5.22;2.58;;;;;;;;;;4976788;28;20037;-72
2024/01/24 14:01:30;;;;;;;5.97;2.20;;;;;;;;;;4977153;28;20023;-72
2024/01/24 14:03:56;;;;;;;4.43;2.42;;;;;;;;;;4977043;28;20033;-72
2024/01/24 14:06:21;;;;;;;2.30;2.10;;;;;;;;;;4977472;28;20027;-71
2024/01/24 14:08:47;;;;;;;2.33;2.10;;;;;;;;;;4976933;28;20039;-71
2024/01/24 14:11:13;;;;;;;2.63;2.40;;;;;;;;;;4977024;28;20105;-72
2024/01/24 14:13:39;;;;;;;2.80;2.50;;;;;;;;;;4976979;28;20022;-71
2024/01/24 14:16:05;;;;;;;2.55;2.20;;;;;;;;;;4976919;28;20026;-72
2024/01/24 14:18:31;;;;;;;2.55;2.13;;;;;;;;;;4976818;28;20054;-72
2024/01/24 14:20:57;;;;;;;3.55;2.22;;;;;;;;;;4977209;28;20395;-72
2024/01/24 14:23:23;;;;;;;3.67;2.20;;;;;;;;;;4976715;28;20456;-72
2024/01/24 14:25:49;;;;;;;2.30;2.00;;;;;;;;;;4976688;28;20040;-71
2024/01/24 14:28:17;;;;;;;2.60;2.10;;;;;;;;;;4976546;28;20430;-72
2024/01/24 14:30:43;;;;;;;2.20;2.00;;;;;;;;;;4976926;28;20030;-72
2024/01/24 14:33:08;;;;;;;2.90;2.33;;;;;;;;;;4976589;28;20093;-72
2024/01/24 14:35:34;;;;;;;4.18;2.20;;;;;;;;;;4975843;28;20022;-72
2024/01/24 14:38:00;;;;;;;2.65;2.00;;;;;;;;;;4976588;28;20060;-72
2024/01/24 14:40:25;;;;;;;2.97;2.30;;;;;;;;;;4976396;28;20034;-72
2024/01/24 14:42:51;;;;;;;2.20;1.88;;;;;;;;;;4976541;28;20061;-72
2024/01/24 14:45:16;;;;;;;4.10;2.22;;;;;;;;;;4976535;28;20031;-72
2024/01/24 14:47:42;;;;;;;2.55;2.10;;;;;;;;;;4976452;28;20400;-72
2024/01/24 14:50:08;;;;;;;1.92;1.80;;;;;;;;;;4976619;28;20455;-72
2024/01/24 14:52:34;;;;;;;5.68;2.30;;;;;;;;;;4976611;28;20027;-72
2024/01/24 14:55:02;;;;;;;2.50;1.70;;;;;;;;;;4976752;28;20456;-72
2024/01/24 14:57:33;;;;;;;3.53;1.90;;;;;;;;;;4976394;28;20035;-72
2024/01/24 15:00:00;;;;;;;3.60;2.35;;;;;;;;;;4976211;28;20030;-72
2024/01/24 15:02:26;;;;;;;2.85;2.40;;;;;;;;;;4976002;28;20488;-72
2024/01/24 15:04:54;;;;;;;1.90;1.80;;;;;;;;;;4974417;28;20457;-72
2024/01/24 15:07:20;;;;;;;2.28;2.00;;;;;;;;;;4975940;28;20023;-72
2024/01/24 15:09:45;;;;;;;2.35;2.05;;;;;;;;;;4975911;28;20038;-72
2024/01/24 15:12:11;;;;;;;3.38;1.88;;;;;;;;;;4976055;28;20031;-72
2024/01/24 15:14:36;;;;;;;2.08;1.88;;;;;;;;;;4975977;28;20035;-71
2024/01/24 15:17:02;;;;;;;2.13;1.92;;;;;;;;;;4976055;28;20127;-71
2024/01/24 15:19:28;;;;;;;2.70;2.00;;;;;;;;;;4975865;28;20035;-72
2024/01/24 15:21:55;;;;;;;2.42;2.13;;;;;;;;;;4975667;28;20047;-71
2024/01/24 15:24:20;;;;;;;3.00;2.33;;;;;;;;;;4975595;28;20034;-71
2024/01/24 15:26:46;;;;;;;2.75;1.77;;;;;;;;;;4973675;28;20027;-72
2024/01/24 15:29:12;;;;;;;2.88;2.08;;;;;;;;;;4975447;28;20023;-73
2024/01/24 15:31:37;;;;;;;4.30;2.20;;;;;;;;;;4975486;28;20073;-71
2024/01/24 15:34:03;;;;;;;2.58;2.00;;;;;;;;;;4975327;28;20022;-70
2024/01/24 15:36:30;;;;;;;2.28;2.08;;;;;;;;;;4975582;28;20493;-74
2024/01/24 15:38:56;;;;;;;3.38;2.53;;;;;;;;;;4975584;28;20030;-69
2024/01/24 15:41:22;;;;;;;3.05;2.20;;;;;;;;;;4975816;28;20046;-71
2024/01/24 15:43:48;;;;;;;3.97;2.63;;;;;;;;;;4978261;28;20033;-71
2024/01/24 15:46:13;;;;;;;2.55;2.35;;;;;;;;;;4975324;28;20023;-70
2024/01/24 15:48:40;;;;;;;6.15;2.55;;;;;;;;;;4973596;28;20037;-68
2024/01/24 15:51:06;;;;;;;3.17;2.25;;;;;;;;;;4974900;28;20035;-71
2024/01/24 15:53:31;;;;;;;4.25;2.60;;;;;;;;;;4975055;28;20103;-73
2024/01/24 15:55:57;;;;;;;3.60;2.08;;;;;;;;;;4974752;28;20027;-73
2024/01/24 15:58:22;;;;;;;3.13;2.33;;;;;;;;;;4974730;28;20683;-72
2024/01/24 16:00:48;;;;;;;3.55;2.20;;;;;;;;;;4974733;28;20030;-70
2024/01/24 16:03:14;;;;;;;11.93;2.55;;;;;;;;;;4974472;28;20050;-68
2024/01/24 16:05:48;;;;;;;3.50;2.40;;;;;;;;;;4970994;28;20039;-66
2024/01/24 16:08:15;;;;;;;2.70;2.20;;;;;;;;;;4974361;28;20399;-68
2024/01/24 16:10:42;;;;;;;3.60;2.22;;;;;;;;;;4973178;28;20038;-70
2024/01/24 16:13:08;;;;;;;6.20;2.55;;;;;;;;;;4974459;28;20023;-70
2024/01/24 16:15:34;;;;;;;2.40;2.20;;;;;;;;;;4974333;28;20105;-68
2024/01/24 16:17:59;;;;;;;3.22;2.50;;;;;;;;;;4974391;28;20440;-69
2024/01/24 16:20:25;;;;;;;4.65;2.13;;;;;;;;;;4974381;28;20037;-68
2024/01/24 16:22:50;;;;;;;4.93;2.20;;;;;;;;;;4974149;28;20435;-68
2024/01/24 16:25:16;;;;;;;2.80;2.00;;;;;;;;;;4971061;28;20386;-67
2024/01/24 16:27:42;;;;;;;2.83;2.10;;;;;;;;;;4974190;28;20117;-70
2024/01/24 16:30:09;;;;;;;4.60;2.25;;;;;;;;;;4974145;28;20031;-71
2024/01/24 16:32:35;;;;;;;4.28;2.72;;;;;;;;;;4974072;28;20107;-67
2024/01/24 16:35:09;;;;;;;9.18;2.63;;;;;;;;;;4972509;28;20038;-70
2024/01/24 16:37:35;;;;;;;6.32;2.25;;;;;;;;;;4973288;28;20034;-69
2024/01/24 16:40:03;;;;;;;2.67;2.10;;;;;;;;;;4973958;28;20018;-70
2024/01/24 16:42:29;;;;;;;4.65;2.30;;;;;;;;;;4973894;28;20054;-68
2024/01/24 16:44:55;;;;;;;4.47;2.28;;;;;;;;;;4973374;28;20037;-68
2024/01/24 16:47:23;;;;;;;4.60;2.15;;;;;;;;;;4973447;28;20472;-68
2024/01/24 16:49:49;;;;;;;2.70;2.00;;;;;;;;;;4974076;28;20030;-71
2024/01/24 16:52:15;;;;;;;5.60;2.63;;;;;;;;;;4972175;28;20114;-69
2024/01/24 16:54:40;;;;;;;6.40;2.40;;;;;;;;;;4973311;28;20105;-69
2024/01/24 16:57:06;;;;;;;7.70;2.70;;;;;;;;;;4973684;28;20038;-72
2024/01/24 16:59:31;;;;;;;5.72;2.08;;;;;;;;;;4973388;28;20039;-69
2024/01/24 17:01:57;;;;;;;7.95;2.22;;;;;;;;;;4973716;28;20031;-69
2024/01/24 17:04:22;;;;;;;9.88;2.72;;;;;;;;;;4973451;28;20083;-70
2024/01/24 17:06:48;;;;;;;2.20;2.00;;;;;;;;;;4973592;28;20026;-71
2024/01/24 17:09:15;;;;;;;6.95;2.40;;;;;;;;;;4973441;28;20058;-68
2024/01/24 17:11:40;;;;;;;5.97;2.50;;;;;;;;;;4973568;28;20030;-72
2024/01/24 17:14:06;;;;;;;5.18;2.30;;;;;;;;;;4973642;28;20030;-69
2024/01/24 17:16:31;;;;;;;4.78;1.90;;;;;;;;;;4973581;28;20031;-70
2024/01/24 17:18:57;;;;;;;9.55;2.35;;;;;;;;;;4973605;28;20082;-71
2024/01/24 17:21:22;;;;;;;6.00;2.53;;;;;;;;;;4975552;28;20028;-74
2024/01/24 17:23:48;;;;;;;3.83;2.28;;;;;;;;;;4973892;28;20030;-71
2024/01/24 17:26:13;;;;;;;9.05;2.35;;;;;;;;;;4973612;28;20026;-72
2024/01/24 17:28:39;;;;;;;4.25;2.42;;;;;;;;;;4974366;28;20551;-74
2024/01/24 17:31:04;;;;;;;11.45;2.53;;;;;;;;;;4973591;28;20062;-70
2024/01/24 17:33:30;;;;;;;3.88;2.25;;;;;;;;;;4973387;28;20379;-70
2024/01/24 17:35:56;;;;;;;10.02;2.22;;;;;;;;;;4973379;28;20023;-69
2024/01/24 17:38:21;;;;;;;9.00;2.20;;;;;;;;;;4973294;28;20027;-73
2024/01/24 17:40:47;;;;;;;15.95;2.50;;;;;;;;;;4973275;28;20464;-69
2024/01/24 17:43:13;;;;;;;6.00;2.05;;;;;;;;;;4971745;28;20031;-75
2024/01/24 17:45:38;;;;;;;5.18;2.10;;;;;;;;;;4972134;28;20015;-68
2024/01/24 17:48:04;;;;;;;8.02;2.60;;;;;;;;;;4971964;28;20033;-69
2024/01/24 17:50:30;;;;;;;10.55;2.60;;;;;;;;;;4971769;28;20038;-69
2024/01/24 17:52:55;;;;;;;8.77;2.38;;;;;;;;;;4973489;28;20027;-70
2024/01/24 17:55:22;;;;;;;3.70;2.20;;;;;;;;;;4973097;28;20027;-69
2024/01/24 17:57:48;;;;;;;6.85;2.40;;;;;;;;;;4973208;28;20034;-72
2024/01/24 18:00:14;;;;;;;6.20;2.30;;;;;;;;;;4973019;28;20383;-71
2024/01/24 18:02:39;;;;;;;5.85;2.38;;;;;;;;;;4972966;28;20085;-72
2024/01/24 18:05:06;;;;;;;9.25;2.92;;;;;;;;;;4972930;28;20038;-69
2024/01/24 18:07:31;;;;;;;14.48;2.50;;;;;;;;;;4972899;28;20114;-70
2024/01/24 18:09:57;;;;;;;9.70;2.25;;;;;;;;;;4973043;28;20101;-71
2024/01/24 18:12:22;;;;;;;8.95;2.65;;;;;;;;;;4976037;28;20027;-71
2024/01/24 18:14:48;;;;;;;7.35;2.60;;;;;;;;;;4976543;28;20022;-70
2024/01/24 18:17:13;;;;;;;10.95;2.45;;;;;;;;;;4976701;28;20110;-68
2024/01/24 18:19:39;;;;;;;5.97;2.38;;;;;;;;;;4977144;28;20058;-73
2024/01/24 18:22:05;;;;;;;6.38;2.55;;;;;;;;;;4976901;28;20471;-69
2024/01/24 18:24:30;;;;;;;7.45;2.38;;;;;;;;;;4974960;28;20060;-70
2024/01/24 18:26:56;;;;;;;10.90;2.90;;;;;;;;;;4976248;28;20031;-67
2024/01/24 18:29:21;;;;;;;2.88;2.40;;;;;;;;;;4976323;28;20038;-73
2024/01/24 18:31:47;;;;;;;11.80;3.05;;;;;;;;;;4972176;28;20377;-72
2024/01/24 18:34:13;;;;;;;9.07;3.00;;;;;;;;;;4972174;28;20757;-73
2024/01/24 18:36:38;;;;;;;4.30;2.70;;;;;;;;;;4967504;28;20167;-72
2024/01/24 18:39:05;;;;;;;7.35;2.92;;;;;;;;;;4967711;28;20045;-71
2024/01/24 18:41:31;;;;;;;10.10;2.97;;;;;;;;;;4975685;28;20033;-73
2024/01/24 18:43:56;;;;;;;6.35;2.70;;;;;;;;;;4977177;28;20110;-71
2024/01/24 18:46:25;;;;;;;14.77;3.55;;;;;;;;;;4976424;28;20023;-73
2024/01/24 18:48:50;;;;;;;5.40;3.17;;;;;;;;;;4972431;28;20383;-71
2024/01/24 18:51:16;;;;;;;12.60;4.18;;;;;;;;;;4978323;28;20031;-74
2024/01/24 18:53:42;;;;;;;9.02;3.70;;;;;;;;;;4978044;28;20480;-73
2024/01/24 18:56:11;;;;;;;7.80;3.00;;;;;;;;;;4976333;28;20535;-73
2024/01/24 18:58:37;;;;;;;12.60;3.60;;;;;;;;;;4976565;28;20022;-74
2024/01/24 19:01:04;;;;;;;12.57;3.60;;;;;;;;;;4976187;28;20026;-76
2024/01/24 19:03:31;;;;;;;4.47;2.97;;;;;;;;;;4976241;28;20408;-75
2024/01/24 19:05:57;;;;;;;6.70;3.58;;;;;;;;;;4980756;28;20043;-77
2024/01/24 19:08:23;;;;;;;10.20;3.80;;;;;;;;;;4976714;28;20030;-73
2024/01/24 19:10:49;;;;;;;5.97;3.00;;;;;;;;;;4977492;28;20034;-75
2024/01/24 19:13:17;;;;;;;9.50;3.53;;;;;;;;;;4979701;28;20027;-75
2024/01/24 19:15:43;;;;;;;7.43;3.17;;;;;;;;;;4985477;28;20048;-75
2024/01/24 19:18:10;;;;;;;10.60;3.30;;;;;;;;;;4975364;28;20392;-69
2024/01/24 19:20:36;;;;;;;7.38;3.08;;;;;;;;;;4958251;28;20031;-69
2024/01/24 19:23:01;;;;;;;6.80;2.92;;;;;;;;;;4975134;28;20030;-70
2024/01/24 19:25:27;;;;;;;8.05;3.25;;;;;;;;;;4974875;28;20029;-70
2024/01/24 19:27:53;;;;;;;6.47;2.95;;;;;;;;;;4976588;28;20054;-69
2024/01/24 19:30:19;;;;;;;5.90;3.13;;;;;;;;;;4974737;28;20035;-70
2024/01/24 19:32:44;;;;;;;4.00;2.72;;;;;;;;;;4975292;28;20364;-71
2024/01/24 19:35:10;;;;;;;8.38;3.15;;;;;;;;;;4975226;28;20538;-69